TimeMST,TemperatureF,Dew PointF,Humidity,Sea Level PressureIn,VisibilityMPH,Wind Direction,Wind SpeedMPH,Gust SpeedMPH,PrecipitationIn,Events,Conditions,WindDirDegrees,DateUTC
12:56 AM,30.0,21.0,69,29.91,10.0,WNW,9.2,-,0.00,,Overcast,290,2013-01-29 07:56:00
1:56 AM,28.9,21.9,75,29.90,10.0,WSW,5.8,-,N/A,,Mostly Cloudy,240,2013-01-29 08:56:00
2:56 AM,28.0,18.0,66,29.91,10.0,West,10.4,-,N/A,,Mostly Cloudy,270,2013-01-29 09:56:00
3:56 AM,25.0,17.1,72,29.92,10.0,West,6.9,-,N/A,,Clear,270,2013-01-29 10:56:00
4:56 AM,21.9,16.0,78,29.94,10.0,West,6.9,-,N/A,,Clear,260,2013-01-29 11:56:00
5:56 AM,21.9,14.0,72,29.96,10.0,West,6.9,-,N/A,,Clear,270,2013-01-29 12:56:00
6:56 AM,19.9,12.0,71,29.98,10.0,WSW,8.1,-,N/A,,Clear,250,2013-01-29 13:56:00
7:56 AM,21.0,12.0,68,29.99,10.0,West,6.9,-,N/A,,Clear,260,2013-01-29 14:56:00
8:56 AM,26.1,12.0,55,30.01,10.0,West,5.8,-,N/A,,Clear,270,2013-01-29 15:56:00
9:56 AM,30.0,12.9,49,30.00,10.0,NW,8.1,-,N/A,,Clear,310,2013-01-29 16:56:00
10:56 AM,32.0,12.9,45,29.99,10.0,WNW,8.1,-,N/A,,Clear,290,2013-01-29 17:56:00
11:56 AM,36.0,17.1,46,29.97,10.0,NW,9.2,-,N/A,,Clear,320,2013-01-29 18:56:00
12:56 PM,37.9,16.0,41,29.94,10.0,NNW,19.6,25.3,N/A,,Clear,330,2013-01-29 19:56:00
1:56 PM,39.0,16.0,39,29.93,10.0,WNW,13.8,-,N/A,,Clear,300,2013-01-29 20:56:00
2:56 PM,39.0,17.1,41,29.94,10.0,NW,18.4,27.6,N/A,,Clear,310,2013-01-29 21:56:00
3:56 PM,37.9,16.0,41,29.96,10.0,WNW,21.9,29.9,N/A,,Clear,290,2013-01-29 22:56:00
4:56 PM,37.9,16.0,41,29.99,10.0,WNW,21.9,31.1,N/A,,Partly Cloudy,300,2013-01-29 23:56:00
5:56 PM,37.0,17.1,44,30.01,10.0,WNW,17.3,32.2,N/A,,Overcast,300,2013-01-30 00:56:00
6:56 PM,35.1,18.0,50,30.06,10.0,West,17.3,25.3,N/A,,Scattered Clouds,280,2013-01-30 01:56:00
7:56 PM,35.1,19.0,52,30.10,10.0,WNW,17.3,-,N/A,,Scattered Clouds,290,2013-01-30 02:56:00
8:56 PM,33.1,19.9,59,30.12,10.0,WNW,13.8,-,N/A,,Clear,290,2013-01-30 03:56:00
9:56 PM,33.1,21.0,61,30.13,10.0,WNW,13.8,-,N/A,,Clear,300,2013-01-30 04:56:00
10:56 PM,30.9,19.0,61,30.17,10.0,WNW,12.7,-,N/A,,Clear,290,2013-01-30 05:56:00
11:56 PM,30.0,19.0,64,30.19,10.0,WNW,10.4,-,N/A,,Clear,300,2013-01-30 06:56:00